sensor_id;sensor_type;location;lat;lon;timestamp;pressure;altitude;pressure_sealevel;temperature;humidity
57628;BME280;43451;49.060;10.616;2023-09-08T00:00:37;97060.56;;;13.25;100.00
57628;BME280;43451;49.060;10.616;2023-09-08T00:03:20;97056.69;;;13.26;100.00
57628;BME280;43451;49.060;10.616;2023-09-08T00:05:46;97057.50;;;13.19;100.00
57628;BME280;43451;49.060;10.616;2023-09-08T00:08:20;97053.28;;;13.08;100.00
57628;BME280;43451;49.060;10.616;2023-09-08T00:11:07;97049.03;;;12.99;100.00
57628;BME280;43451;49.060;10.616;2023-09-08T00:13:34;97052.91;;;13.02;100.00
57628;BME280;43451;49.060;10.616;2023-09-08T00:15:59;97044.34;;;13.00;100.00
57628;BME280;43451;49.060;10.616;2023-09-08T00:18:24;97047.44;;;13.02;100.00
57628;BME280;43451;49.060;10.616;2023-09-08T00:20:50;97045.44;;;13.10;100.00
57628;BME280;43451;49.060;10.616;2023-09-08T00:23:15;97041.63;;;13.04;100.00
57628;BME280;43451;49.060;10.616;2023-09-08T00:25:40;97040.16;;;12.85;100.00
57628;BME280;43451;49.060;10.616;2023-09-08T00:28:06;97041.69;;;12.89;100.00
57628;BME280;43451;49.060;10.616;2023-09-08T00:30:37;97042.47;;;12.86;100.00
57628;BME280;43451;49.060;10.616;2023-09-08T00:33:08;97051.84;;;12.85;100.00
57628;BME280;43451;49.060;10.616;2023-09-08T00:35:51;97047.22;;;12.78;100.00
57628;BME280;43451;49.060;10.616;2023-09-08T00:41:18;97044.50;;;12.75;100.00
57628;BME280;43451;49.060;10.616;2023-09-08T00:43:43;97041.78;;;12.75;100.00
57628;BME280;43451;49.060;10.616;2023-09-08T00:46:09;97039.44;;;12.73;100.00
57628;BME280;43451;49.060;10.616;2023-09-08T00:48:34;97037.13;;;12.72;100.00
57628;BME280;43451;49.060;10.616;2023-09-08T00:51:05;97048.44;;;12.67;100.00
57628;BME280;43451;49.060;10.616;2023-09-08T00:53:39;97041.84;;;12.61;100.00
57628;BME280;43451;49.060;10.616;2023-09-08T00:56:04;97043.41;;;12.54;100.00
57628;BME280;43451;49.060;10.616;2023-09-08T00:58:30;97055.94;;;12.41;100.00
57628;BME280;43451;49.060;10.616;2023-09-08T01:01:19;97048.53;;;12.38;100.00
57628;BME280;43451;49.060;10.616;2023-09-08T01:10:15;97050.50;;;12.34;100.00
57628;BME280;43451;49.060;10.616;2023-09-08T01:12:40;97052.06;;;12.35;100.00
57628;BME280;43451;49.060;10.616;2023-09-08T01:18:27;97045.84;;;12.35;100.00
57628;BME280;43451;49.060;10.616;2023-09-08T01:27:18;97057.50;;;12.35;100.00
57628;BME280;43451;49.060;10.616;2023-09-08T01:29:45;97051.69;;;12.29;100.00
57628;BME280;43451;49.060;10.616;2023-09-08T01:32:12;97051.31;;;12.27;100.00
57628;BME280;43451;49.060;10.616;2023-09-08T01:34:38;97049.72;;;12.34;100.00
57628;BME280;43451;49.060;10.616;2023-09-08T01:40:27;97046.53;;;12.49;100.00
57628;BME280;43451;49.060;10.616;2023-09-08T01:42:53;97044.16;;;12.59;100.00
57628;BME280;43451;49.060;10.616;2023-09-08T01:45:22;97044.97;;;12.55;100.00
57628;BME280;43451;49.060;10.616;2023-09-08T01:47:48;97035.50;;;12.78;100.00
57628;BME280;43451;49.060;10.616;2023-09-08T01:50:13;97041.06;;;12.60;100.00
57628;BME280;43451;49.060;10.616;2023-09-08T01:52:47;97033.72;;;12.50;100.00
57628;BME280;43451;49.060;10.616;2023-09-08T01:55:13;97035.28;;;12.47;100.00
57628;BME280;43451;49.060;10.616;2023-09-08T01:57:39;97031.38;;;12.48;100.00
57628;BME280;43451;49.060;10.616;2023-09-08T02:00:41;97034.13;;;12.41;100.00
57628;BME280;43451;49.060;10.616;2023-09-08T02:03:23;97031.41;;;12.41;100.00
57628;BME280;43451;49.060;10.616;2023-09-08T02:06:08;97029.50;;;12.31;100.00
57628;BME280;43451;49.060;10.616;2023-09-08T02:08:33;97033.03;;;12.28;100.00
57628;BME280;43451;49.060;10.616;2023-09-08T02:10:59;97037.31;;;12.22;100.00
57628;BME280;43451;49.060;10.616;2023-09-08T02:13:29;97031.09;;;12.18;100.00
57628;BME280;43451;49.060;10.616;2023-09-08T02:15:55;97035.00;;;12.13;100.00
57628;BME280;43451;49.060;10.616;2023-09-08T02:18:20;97033.84;;;12.11;100.00
57628;BME280;43451;49.060;10.616;2023-09-08T02:20:45;97037.72;;;12.17;100.00
57628;BME280;43451;49.060;10.616;2023-09-08T02:23:29;97031.91;;;12.15;100.00
57628;BME280;43451;49.060;10.616;2023-09-08T02:26:06;97044.31;;;12.19;100.00
57628;BME280;43451;49.060;10.616;2023-09-08T02:28:31;97039.66;;;12.16;100.00
57628;BME280;43451;49.060;10.616;2023-09-08T02:30:56;97030.31;;;12.17;100.00
57628;BME280;43451;49.060;10.616;2023-09-08T02:33:22;97036.53;;;12.18;100.00
57628;BME280;43451;49.060;10.616;2023-09-08T02:35:47;97039.66;;;12.20;100.00
57628;BME280;43451;49.060;10.616;2023-09-08T02:38:13;97038.88;;;12.19;100.00
57628;BME280;43451;49.060;10.616;2023-09-08T02:40:38;97042.78;;;12.15;100.00
57628;BME280;43451;49.060;10.616;2023-09-08T02:43:03;97041.22;;;12.14;100.00
57628;BME280;43451;49.060;10.616;2023-09-08T02:45:29;97043.94;;;12.14;100.00
57628;BME280;43451;49.060;10.616;2023-09-08T02:48:18;97042.00;;;12.11;100.00
57628;BME280;43451;49.060;10.616;2023-09-08T02:50:44;97036.19;;;12.05;100.00
57628;BME280;43451;49.060;10.616;2023-09-08T02:53:33;97037.38;;;11.86;100.00
57628;BME280;43451;49.060;10.616;2023-09-08T02:55:59;97042.81;;;11.79;100.00
57628;BME280;43451;49.060;10.616;2023-09-08T02:58:26;97040.50;;;11.74;100.00
57628;BME280;43451;49.060;10.616;2023-09-08T03:01:16;97049.47;;;11.71;100.00
57628;BME280;43451;49.060;10.616;2023-09-08T03:06:59;97038.97;;;11.62;100.00
57628;BME280;43451;49.060;10.616;2023-09-08T03:09:24;97047.91;;;11.55;100.00
57628;BME280;43451;49.060;10.616;2023-09-08T03:11:56;97047.50;;;11.60;100.00
57628;BME280;43451;49.060;10.616;2023-09-08T03:14:21;97036.63;;;11.60;100.00
57628;BME280;43451;49.060;10.616;2023-09-08T03:16:46;97042.84;;;11.65;100.00
57628;BME280;43451;49.060;10.616;2023-09-08T03:19:16;97048.28;;;11.65;100.00
57628;BME280;43451;49.060;10.616;2023-09-08T03:21:41;97038.16;;;11.54;100.00
57628;BME280;43451;49.060;10.616;2023-09-08T03:24:08;97044.78;;;11.50;100.00
57628;BME280;43451;49.060;10.616;2023-09-08T03:26:33;97034.28;;;11.37;100.00
57628;BME280;43451;49.060;10.616;2023-09-08T03:28:58;97041.28;;;11.35;100.00
57628;BME280;43451;49.060;10.616;2023-09-08T03:31:30;97036.63;;;11.14;100.00
57628;BME280;43451;49.060;10.616;2023-09-08T03:33:55;97033.91;;;11.10;100.00
57628;BME280;43451;49.060;10.616;2023-09-08T03:36:21;97037.00;;;11.05;100.00
57628;BME280;43451;49.060;10.616;2023-09-08T03:38:46;97036.22;;;11.05;100.00
57628;BME280;43451;49.060;10.616;2023-09-08T03:41:11;97040.13;;;11.04;100.00
57628;BME280;43451;49.060;10.616;2023-09-08T03:43:37;97040.50;;;11.09;100.00
57628;BME280;43451;49.060;10.616;2023-09-08T03:46:03;97040.50;;;11.13;100.00
57628;BME280;43451;49.060;10.616;2023-09-08T03:48:28;97042.47;;;11.37;100.00
57628;BME280;43451;49.060;10.616;2023-09-08T03:50:54;97032.34;;;11.34;100.00
57628;BME280;43451;49.060;10.616;2023-09-08T03:53:19;97035.06;;;11.31;100.00
57628;BME280;43451;49.060;10.616;2023-09-08T03:55:45;97033.13;;;11.28;100.00
57628;BME280;43451;49.060;10.616;2023-09-08T03:58:30;97037.41;;;11.36;100.00
57628;BME280;43451;49.060;10.616;2023-09-08T04:00:56;97028.88;;;11.48;100.00
57628;BME280;43451;49.060;10.616;2023-09-08T04:03:21;97035.47;;;11.33;100.00
57628;BME280;43451;49.060;10.616;2023-09-08T04:09:03;97029.59;;;11.02;100.00
57628;BME280;43451;49.060;10.616;2023-09-08T04:11:43;97029.97;;;10.97;100.00
57628;BME280;43451;49.060;10.616;2023-09-08T04:14:38;97033.88;;;10.96;100.00
57628;BME280;43451;49.060;10.616;2023-09-08T04:17:15;97037.00;;;10.95;100.00
57628;BME280;43451;49.060;10.616;2023-09-08T04:19:41;97036.59;;;10.89;100.00
57628;BME280;43451;49.060;10.616;2023-09-08T04:22:28;97031.50;;;10.84;100.00
57628;BME280;43451;49.060;10.616;2023-09-08T04:24:53;97040.84;;;10.83;100.00
57628;BME280;43451;49.060;10.616;2023-09-08T04:27:19;97036.53;;;10.78;100.00
57628;BME280;43451;49.060;10.616;2023-09-08T04:29:44;97044.31;;;10.73;100.00
57628;BME280;43451;49.060;10.616;2023-09-08T04:32:10;97048.94;;;10.68;100.00
57628;BME280;43451;49.060;10.616;2023-09-08T04:34:39;97046.63;;;10.71;100.00
57628;BME280;43451;49.060;10.616;2023-09-08T04:37:05;97052.47;;;10.69;100.00
57628;BME280;43451;49.060;10.616;2023-09-08T04:39:38;97048.22;;;10.86;100.00
57628;BME280;43451;49.060;10.616;2023-09-08T04:42:12;97046.69;;;10.85;100.00
57628;BME280;43451;49.060;10.616;2023-09-08T04:44:38;97042.44;;;10.98;100.00
57628;BME280;43451;49.060;10.616;2023-09-08T04:53:40;97041.25;;;10.96;100.00
57628;BME280;43451;49.060;10.616;2023-09-08T04:56:08;97041.59;;;10.80;100.00
57628;BME280;43451;49.060;10.616;2023-09-08T04:58:33;97052.06;;;10.78;100.00
57628;BME280;43451;49.060;10.616;2023-09-08T05:00:59;97041.59;;;10.76;100.00
57628;BME280;43451;49.060;10.616;2023-09-08T05:03:38;97045.50;;;10.75;100.00
57628;BME280;43451;49.060;10.616;2023-09-08T05:06:07;97052.84;;;10.78;100.00
57628;BME280;43451;49.060;10.616;2023-09-08T05:08:59;97046.69;;;10.85;100.00
57628;BME280;43451;49.060;10.616;2023-09-08T05:11:29;97054.78;;;10.81;100.00
57628;BME280;43451;49.060;10.616;2023-09-08T05:14:08;97061.00;;;10.78;100.00
57628;BME280;43451;49.060;10.616;2023-09-08T05:16:38;97063.72;;;10.75;100.00
57628;BME280;43451;49.060;10.616;2023-09-08T05:19:30;97055.19;;;10.73;100.00
57628;BME280;43451;49.060;10.616;2023-09-08T05:22:19;97055.94;;;10.69;100.00
57628;BME280;43451;49.060;10.616;2023-09-08T05:28:06;97051.34;;;10.88;100.00
57628;BME280;43451;49.060;10.616;2023-09-08T05:30:37;97051.34;;;10.95;100.00
57628;BME280;43451;49.060;10.616;2023-09-08T05:33:03;97058.34;;;11.03;100.00
57628;BME280;43451;49.060;10.616;2023-09-08T05:35:28;97066.13;;;11.08;100.00
57628;BME280;43451;49.060;10.616;2023-09-08T05:38:03;97054.88;;;11.13;100.00
57628;BME280;43451;49.060;10.616;2023-09-08T05:40:28;97065.38;;;11.22;100.00
57628;BME280;43451;49.060;10.616;2023-09-08T05:42:53;97069.25;;;11.28;100.00
57628;BME280;43451;49.060;10.616;2023-09-08T05:45:19;97061.13;;;11.35;100.00
57628;BME280;43451;49.060;10.616;2023-09-08T05:47:45;97070.06;;;11.43;100.00
57628;BME280;43451;49.060;10.616;2023-09-08T05:50:40;97067.72;;;11.49;100.00
57628;BME280;43451;49.060;10.616;2023-09-08T05:53:06;97065.00;;;11.56;100.00
57628;BME280;43451;49.060;10.616;2023-09-08T05:55:31;97074.34;;;11.66;100.00
57628;BME280;43451;49.060;10.616;2023-09-08T05:57:56;97075.50;;;11.75;100.00
57628;BME280;43451;49.060;10.616;2023-09-08T06:00:22;97077.06;;;11.87;100.00
57628;BME280;43451;49.060;10.616;2023-09-08T06:02:48;97080.56;;;11.95;100.00
57628;BME280;43451;49.060;10.616;2023-09-08T06:05:15;97069.25;;;12.03;100.00
57628;BME280;43451;49.060;10.616;2023-09-08T06:07:42;97069.22;;;12.21;100.00
57628;BME280;43451;49.060;10.616;2023-09-08T06:10:08;97066.06;;;12.37;100.00
57628;BME280;43451;49.060;10.616;2023-09-08T06:12:37;97066.78;;;12.52;100.00
57628;BME280;43451;49.060;10.616;2023-09-08T06:15:08;97065.19;;;12.58;100.00
57628;BME280;43451;49.060;10.616;2023-09-08T06:17:33;97071.41;;;12.66;100.00
57628;BME280;43451;49.060;10.616;2023-09-08T06:19:59;97072.06;;;12.91;100.00
57628;BME280;43451;49.060;10.616;2023-09-08T06:22:25;97072.00;;;13.02;100.00
57628;BME280;43451;49.060;10.616;2023-09-08T06:27:56;97067.03;;;13.49;100.00
57628;BME280;43451;49.060;10.616;2023-09-08T06:30:21;97066.91;;;13.63;100.00
57628;BME280;43451;49.060;10.616;2023-09-08T06:32:47;97068.81;;;13.70;100.00
57628;BME280;43451;49.060;10.616;2023-09-08T06:35:32;97068.19;;;13.97;100.00
57628;BME280;43451;49.060;10.616;2023-09-08T06:38:02;97069.56;;;14.15;100.00
57628;BME280;43451;49.060;10.616;2023-09-08T06:43:33;97069.94;;;14.55;100.00
57628;BME280;43451;49.060;10.616;2023-09-08T06:46:08;97068.28;;;14.61;100.00
57628;BME280;43451;49.060;10.616;2023-09-08T06:48:38;97071.72;;;14.69;100.00
57628;BME280;43451;49.060;10.616;2023-09-08T06:51:04;97068.78;;;14.83;100.00
57628;BME280;43451;49.060;10.616;2023-09-08T06:53:29;97078.38;;;14.99;100.00
57628;BME280;43451;49.060;10.616;2023-09-08T06:55:56;97074.66;;;15.13;100.00
57628;BME280;43451;49.060;10.616;2023-09-08T06:58:21;97066.56;;;15.32;100.00
57628;BME280;43451;49.060;10.616;2023-09-08T07:00:46;97064.63;;;15.56;100.00
57628;BME280;43451;49.060;10.616;2023-09-08T07:03:22;97071.16;;;15.90;100.00
57628;BME280;43451;49.060;10.616;2023-09-08T07:05:54;97057.41;;;16.13;100.00
57628;BME280;43451;49.060;10.616;2023-09-08T07:08:41;97062.72;;;16.24;100.00
57628;BME280;43451;49.060;10.616;2023-09-08T07:11:08;97058.00;;;16.24;100.00
57628;BME280;43451;49.060;10.616;2023-09-08T07:13:34;97051.91;;;16.37;100.00
57628;BME280;43451;49.060;10.616;2023-09-08T07:15:59;97059.00;;;16.54;100.00
57628;BME280;43451;49.060;10.616;2023-09-08T07:18:25;97050.69;;;16.78;100.00
57628;BME280;43451;49.060;10.616;2023-09-08T07:20:50;97051.09;;;16.96;100.00
57628;BME280;43451;49.060;10.616;2023-09-08T07:23:19;97050.63;;;17.17;100.00
57628;BME280;43451;49.060;10.616;2023-09-08T07:25:48;97046.59;;;17.22;100.00
57628;BME280;43451;49.060;10.616;2023-09-08T07:28:14;97047.19;;;17.30;100.00
57628;BME280;43451;49.060;10.616;2023-09-08T07:30:40;97051.66;;;17.56;100.00
57628;BME280;43451;49.060;10.616;2023-09-08T07:33:05;97041.47;;;17.73;100.00
57628;BME280;43451;49.060;10.616;2023-09-08T07:35:31;97038.44;;;18.00;100.00
57628;BME280;43451;49.060;10.616;2023-09-08T07:37:57;97042.56;;;18.08;100.00
57628;BME280;43451;49.060;10.616;2023-09-08T07:40:23;97046.41;;;18.11;100.00
57628;BME280;43451;49.060;10.616;2023-09-08T07:42:48;97048.88;;;18.22;100.00
57628;BME280;43451;49.060;10.616;2023-09-08T07:45:14;97050.41;;;18.23;100.00
57628;BME280;43451;49.060;10.616;2023-09-08T07:47:39;97048.41;;;18.40;100.00
57628;BME280;43451;49.060;10.616;2023-09-08T07:50:18;97045.78;;;18.78;100.00
57628;BME280;43451;49.060;10.616;2023-09-08T07:52:45;97048.09;;;18.92;100.00
57628;BME280;43451;49.060;10.616;2023-09-08T07:55:11;97054.91;;;18.88;100.00
57628;BME280;43451;49.060;10.616;2023-09-08T07:57:37;97050.97;;;19.01;100.00
57628;BME280;43451;49.060;10.616;2023-09-08T08:00:03;97044.56;;;19.05;100.00
57628;BME280;43451;49.060;10.616;2023-09-08T08:02:29;97050.75;;;19.09;100.00
57628;BME280;43451;49.060;10.616;2023-09-08T08:04:55;97047.91;;;19.38;99.68
57628;BME280;43451;49.060;10.616;2023-09-08T08:07:21;97046.91;;;19.70;92.56
57628;BME280;43451;49.060;10.616;2023-09-08T08:09:46;97047.72;;;19.92;91.73
57628;BME280;43451;49.060;10.616;2023-09-08T08:12:12;97046.47;;;20.06;89.27
57628;BME280;43451;49.060;10.616;2023-09-08T08:14:38;97047.00;;;20.14;89.67
57628;BME280;43451;49.060;10.616;2023-09-08T08:17:04;97041.47;;;20.14;89.31
57628;BME280;43451;49.060;10.616;2023-09-08T08:19:32;97039.63;;;20.11;90.71
57628;BME280;43451;49.060;10.616;2023-09-08T08:21:58;97037.75;;;20.08;93.29
57628;BME280;43451;49.060;10.616;2023-09-08T08:24:24;97041.16;;;20.12;89.56
57628;BME280;43451;49.060;10.616;2023-09-08T08:26:49;97050.19;;;20.12;90.32
57628;BME280;43451;49.060;10.616;2023-09-08T08:29:17;97047.88;;;20.33;91.18
57628;BME280;43451;49.060;10.616;2023-09-08T08:31:42;97037.50;;;20.37;94.03
57628;BME280;43451;49.060;10.616;2023-09-08T08:34:08;97046.94;;;20.49;92.10
57628;BME280;43451;49.060;10.616;2023-09-08T08:36:34;97039.47;;;20.71;83.33
57628;BME280;43451;49.060;10.616;2023-09-08T08:39:00;97034.09;;;20.77;89.13
57628;BME280;43451;49.060;10.616;2023-09-08T08:41:26;97040.72;;;20.79;85.77
57628;BME280;43451;49.060;10.616;2023-09-08T08:43:53;97033.72;;;20.88;84.51
57628;BME280;43451;49.060;10.616;2023-09-08T08:46:21;97031.63;;;21.01;83.62
57628;BME280;43451;49.060;10.616;2023-09-08T08:48:48;97035.16;;;21.01;84.05
57628;BME280;43451;49.060;10.616;2023-09-08T08:51:16;97034.34;;;20.92;88.39
57628;BME280;43451;49.060;10.616;2023-09-08T08:53:43;97033.50;;;21.04;84.93
57628;BME280;43451;49.060;10.616;2023-09-08T08:56:09;97029.63;;;21.01;88.07
57628;BME280;43451;49.060;10.616;2023-09-08T08:58:37;97038.81;;;21.29;84.74
57628;BME280;43451;49.060;10.616;2023-09-08T09:01:04;97028.75;;;21.45;80.61
57628;BME280;43451;49.060;10.616;2023-09-08T09:03:31;97028.50;;;21.61;80.30
57628;BME280;43451;49.060;10.616;2023-09-08T09:05:56;97038.31;;;21.62;81.53
57628;BME280;43451;49.060;10.616;2023-09-08T09:08:23;97034.97;;;21.67;84.53
57628;BME280;43451;49.060;10.616;2023-09-08T09:10:50;97029.72;;;21.60;78.83
57628;BME280;43451;49.060;10.616;2023-09-08T09:13:16;97030.50;;;21.61;80.06
57628;BME280;43451;49.060;10.616;2023-09-08T09:15:42;97035.75;;;21.86;79.88
57628;BME280;43451;49.060;10.616;2023-09-08T09:18:09;97031.31;;;21.79;78.48
57628;BME280;43451;49.060;10.616;2023-09-08T09:20:35;97028.81;;;21.82;85.23
57628;BME280;43451;49.060;10.616;2023-09-08T09:23:00;97023.91;;;21.76;87.50
57628;BME280;43451;49.060;10.616;2023-09-08T09:25:30;97025.91;;;21.94;83.94
57628;BME280;43451;49.060;10.616;2023-09-08T09:28:01;97033.47;;;22.03;77.44
57628;BME280;43451;49.060;10.616;2023-09-08T09:30:28;97027.34;;;22.08;81.36
57628;BME280;43451;49.060;10.616;2023-09-08T09:33:11;97020.72;;;22.06;83.18
57628;BME280;43451;49.060;10.616;2023-09-08T09:35:44;97020.88;;;22.02;80.38
57628;BME280;43451;49.060;10.616;2023-09-08T09:38:11;97028.53;;;22.07;83.06
57628;BME280;43451;49.060;10.616;2023-09-08T09:40:37;97025.81;;;22.25;79.82
57628;BME280;43451;49.060;10.616;2023-09-08T09:43:04;97025.66;;;22.29;76.18
57628;BME280;43451;49.060;10.616;2023-09-08T09:45:33;97015.97;;;22.24;77.95
57628;BME280;43451;49.060;10.616;2023-09-08T09:47:58;97014.41;;;22.42;81.68
57628;BME280;43451;49.060;10.616;2023-09-08T09:50:31;97015.78;;;22.56;79.24
57628;BME280;43451;49.060;10.616;2023-09-08T09:53:00;97005.91;;;22.64;76.28
57628;BME280;43451;49.060;10.616;2023-09-08T09:55:26;97016.22;;;22.63;77.45
57628;BME280;43451;49.060;10.616;2023-09-08T09:57:56;97005.16;;;22.63;79.47
57628;BME280;43451;49.060;10.616;2023-09-08T10:00:22;97003.63;;;22.62;81.79
57628;BME280;43451;49.060;10.616;2023-09-08T10:02:48;97007.31;;;22.68;78.63
57628;BME280;43451;49.060;10.616;2023-09-08T10:05:15;97009.72;;;22.85;76.76
57628;BME280;43451;49.060;10.616;2023-09-08T10:07:41;97003.56;;;22.90;77.44
57628;BME280;43451;49.060;10.616;2023-09-08T10:10:07;97002.00;;;22.89;78.62
57628;BME280;43451;49.060;10.616;2023-09-08T10:12:34;97011.22;;;23.04;72.15
57628;BME280;43451;49.060;10.616;2023-09-08T10:15:02;97001.34;;;23.12;73.77
57628;BME280;43451;49.060;10.616;2023-09-08T10:17:31;97010.22;;;23.26;72.72
57628;BME280;43451;49.060;10.616;2023-09-08T10:19:59;97007.16;;;23.14;74.76
57628;BME280;43451;49.060;10.616;2023-09-08T10:22:30;97006.50;;;23.29;72.59
57628;BME280;43451;49.060;10.616;2023-09-08T10:24:57;97006.50;;;23.29;76.69
57628;BME280;43451;49.060;10.616;2023-09-08T10:27:23;97002.09;;;23.46;71.28
57628;BME280;43451;49.060;10.616;2023-09-08T10:29:49;97003.91;;;23.49;71.90
57628;BME280;43451;49.060;10.616;2023-09-08T10:32:16;96992.19;;;23.54;72.97
57628;BME280;43451;49.060;10.616;2023-09-08T10:34:44;96993.09;;;23.60;71.40
57628;BME280;43451;49.060;10.616;2023-09-08T10:37:22;96999.03;;;23.68;73.26
57628;BME280;43451;49.060;10.616;2023-09-08T10:39:48;96992.28;;;23.69;72.08
57628;BME280;43451;49.060;10.616;2023-09-08T10:47:22;96996.66;;;23.85;71.45
57628;BME280;43451;49.060;10.616;2023-09-08T10:49:50;97004.00;;;24.12;68.94
57628;BME280;43451;49.060;10.616;2023-09-08T10:52:21;96997.66;;;24.12;68.82
57628;BME280;43451;49.060;10.616;2023-09-08T10:54:54;96984.75;;;24.08;67.02
57628;BME280;43451;49.060;10.616;2023-09-08T10:57:21;96991.75;;;24.19;63.27
57628;BME280;43451;49.060;10.616;2023-09-08T10:59:57;96993.72;;;24.03;65.52
57628;BME280;43451;49.060;10.616;2023-09-08T11:05:04;96997.38;;;24.09;70.38
57628;BME280;43451;49.060;10.616;2023-09-08T11:07:31;96993.75;;;24.18;69.66
57628;BME280;43451;49.060;10.616;2023-09-08T11:10:00;96984.41;;;24.30;63.88
57628;BME280;43451;49.060;10.616;2023-09-08T11:12:27;96991.97;;;24.30;68.02
57628;BME280;43451;49.060;10.616;2023-09-08T11:14:53;96990.41;;;24.29;72.78
57628;BME280;43451;49.060;10.616;2023-09-08T11:17:20;96987.84;;;24.40;65.98
57628;BME280;43451;49.060;10.616;2023-09-08T11:19:47;96986.34;;;24.54;62.41
57628;BME280;43451;49.060;10.616;2023-09-08T11:22:14;96987.97;;;24.61;63.10
57628;BME280;43451;49.060;10.616;2023-09-08T11:24:41;96984.44;;;24.60;64.67
57628;BME280;43451;49.060;10.616;2023-09-08T11:27:08;96982.06;;;24.68;60.77
57628;BME280;43451;49.060;10.616;2023-09-08T11:29:34;96985.00;;;24.79;61.30
57628;BME280;43451;49.060;10.616;2023-09-08T11:32:00;96986.81;;;24.82;63.40
57628;BME280;43451;49.060;10.616;2023-09-08T11:34:25;96987.97;;;24.75;63.87
57628;BME280;43451;49.060;10.616;2023-09-08T11:36:51;96980.13;;;24.74;62.92
57628;BME280;43451;49.060;10.616;2023-09-08T11:39:18;96977.53;;;24.85;61.96
57628;BME280;43451;49.060;10.616;2023-09-08T11:41:44;96977.00;;;25.01;64.12
57628;BME280;43451;49.060;10.616;2023-09-08T11:44:15;96981.81;;;25.16;61.30
57628;BME280;43451;49.060;10.616;2023-09-08T11:46:41;96973.38;;;25.10;61.60
57628;BME280;43451;49.060;10.616;2023-09-08T11:49:07;96977.50;;;25.15;64.00
57628;BME280;43451;49.060;10.616;2023-09-08T11:51:33;96971.44;;;25.31;62.38
57628;BME280;43451;49.060;10.616;2023-09-08T11:53:58;96975.81;;;25.38;61.62
57628;BME280;43451;49.060;10.616;2023-09-08T11:56:25;96969.22;;;25.35;61.14
57628;BME280;43451;49.060;10.616;2023-09-08T11:58:54;96964.50;;;25.41;57.93
57628;BME280;43451;49.060;10.616;2023-09-08T12:01:24;96965.81;;;25.46;59.97
57628;BME280;43451;49.060;10.616;2023-09-08T12:03:54;96975.53;;;25.56;57.03
57628;BME280;43451;49.060;10.616;2023-09-08T12:06:24;96974.16;;;25.46;61.26
57628;BME280;43451;49.060;10.616;2023-09-08T12:08:50;96972.13;;;25.46;64.45
57628;BME280;43451;49.060;10.616;2023-09-08T12:11:15;96963.25;;;25.63;58.96
57628;BME280;43451;49.060;10.616;2023-09-08T12:13:41;96964.34;;;25.71;62.19
57628;BME280;43451;49.060;10.616;2023-09-08T12:16:20;96962.63;;;25.74;60.57
57628;BME280;43451;49.060;10.616;2023-09-08T12:18:48;96965.00;;;25.81;57.50
57628;BME280;43451;49.060;10.616;2023-09-08T12:21:15;96962.00;;;25.84;55.09
57628;BME280;43451;49.060;10.616;2023-09-08T12:23:51;96956.19;;;25.82;55.22
57628;BME280;43451;49.060;10.616;2023-09-08T12:26:17;96959.81;;;25.88;54.83
57628;BME280;43451;49.060;10.616;2023-09-08T12:28:43;96959.22;;;25.84;58.81
57628;BME280;43451;49.060;10.616;2023-09-08T12:31:13;96958.47;;;25.84;57.42
57628;BME280;43451;49.060;10.616;2023-09-08T12:33:39;96959.91;;;25.79;55.61
57628;BME280;43451;49.060;10.616;2023-09-08T12:36:18;96957.00;;;25.88;57.42
57628;BME280;43451;49.060;10.616;2023-09-08T12:38:48;96959.66;;;25.98;55.96
57628;BME280;43451;49.060;10.616;2023-09-08T12:41:14;96953.00;;;26.15;53.80
57628;BME280;43451;49.060;10.616;2023-09-08T12:43:40;96950.59;;;26.03;57.29
57628;BME280;43451;49.060;10.616;2023-09-08T12:46:05;96944.56;;;26.10;56.51
57628;BME280;43451;49.060;10.616;2023-09-08T12:48:31;96946.00;;;26.00;56.30
57628;BME280;43451;49.060;10.616;2023-09-08T12:50:56;96945.84;;;26.09;56.89
57628;BME280;43451;49.060;10.616;2023-09-08T12:53:22;96943.34;;;26.11;52.83
57628;BME280;43451;49.060;10.616;2023-09-08T12:55:48;96951.09;;;26.27;52.82
57628;BME280;43451;49.060;10.616;2023-09-08T12:58:15;96942.84;;;26.38;53.17
57628;BME280;43451;49.060;10.616;2023-09-08T13:00:40;96935.88;;;26.49;51.72
57628;BME280;43451;49.060;10.616;2023-09-08T13:03:06;96937.31;;;26.44;54.65
57628;BME280;43451;49.060;10.616;2023-09-08T13:05:31;96936.56;;;26.44;56.03
57628;BME280;43451;49.060;10.616;2023-09-08T13:07:57;96934.09;;;26.51;54.96
57628;BME280;43451;49.060;10.616;2023-09-08T13:10:23;96937.19;;;26.53;56.30
57628;BME280;43451;49.060;10.616;2023-09-08T13:12:49;96928.88;;;26.59;56.13
57628;BME280;43451;49.060;10.616;2023-09-08T13:15:14;96933.53;;;26.73;53.00
57628;BME280;43451;49.060;10.616;2023-09-08T13:17:40;96933.63;;;26.84;50.91
57628;BME280;43451;49.060;10.616;2023-09-08T13:20:06;96930.88;;;26.90;50.53
57628;BME280;43451;49.060;10.616;2023-09-08T13:22:32;96931.13;;;26.87;50.08
57628;BME280;43451;49.060;10.616;2023-09-08T13:24:57;96930.78;;;26.79;52.27
57628;BME280;43451;49.060;10.616;2023-09-08T13:27:23;96927.75;;;26.77;49.82
57628;BME280;43451;49.060;10.616;2023-09-08T13:29:48;96927.25;;;26.78;51.32
57628;BME280;43451;49.060;10.616;2023-09-08T13:32:14;96919.22;;;26.92;49.46
57628;BME280;43451;49.060;10.616;2023-09-08T13:34:39;96914.63;;;26.89;48.72
57628;BME280;43451;49.060;10.616;2023-09-08T13:37:05;96920.78;;;26.93;50.73
57628;BME280;43451;49.060;10.616;2023-09-08T13:39:31;96915.22;;;26.98;47.46
57628;BME280;43451;49.060;10.616;2023-09-08T13:42:00;96917.03;;;27.07;47.39
57628;BME280;43451;49.060;10.616;2023-09-08T13:44:26;96910.72;;;27.06;48.01